createdAt,value
2022-10-13T00:00:59.208Z,100.00
2022-10-13T00:03:28.073Z,100.00
2022-10-13T00:05:54.504Z,100.00
2022-10-13T00:08:22.299Z,100.00
2022-10-13T00:10:51.282Z,100.00
2022-10-13T00:13:19.228Z,100.00
2022-10-13T00:15:50.172Z,100.00
2022-10-13T00:18:17.017Z,100.00
2022-10-13T00:20:46.202Z,100.00
2022-10-13T00:23:13.962Z,100.00
2022-10-13T00:25:42.471Z,100.00
2022-10-13T00:28:12.248Z,100.00
2022-10-13T00:30:39.231Z,100.00
2022-10-13T00:33:06.046Z,100.00
2022-10-13T00:35:33.508Z,100.00
2022-10-13T00:38:00.188Z,100.00
2022-10-13T00:40:26.686Z,100.00
2022-10-13T00:42:55.618Z,100.00
2022-10-13T00:45:25.632Z,100.00
2022-10-13T00:47:57.613Z,100.00
2022-10-13T00:50:29.898Z,100.00
2022-10-13T00:52:57.787Z,100.00
2022-10-13T00:55:28.798Z,100.00
2022-10-13T00:57:56.146Z,100.00
2022-10-13T01:00:24.364Z,100.00
2022-10-13T01:02:51.220Z,100.00
2022-10-13T01:05:21.185Z,100.00
2022-10-13T01:07:49.842Z,100.00
2022-10-13T01:10:35.119Z,100.00
2022-10-13T01:13:33.861Z,100.00
2022-10-13T01:16:09.558Z,100.00
2022-10-13T01:19:09.934Z,100.00
2022-10-13T01:21:38.406Z,100.00
2022-10-13T01:24:42.458Z,100.00
2022-10-13T01:27:13.868Z,100.00
2022-10-13T01:29:58.537Z,100.00
2022-10-13T01:32:51.717Z,100.00
2022-10-13T01:35:42.518Z,100.00
2022-10-13T01:38:29.780Z,100.00
2022-10-13T01:40:59.169Z,100.00
2022-10-13T01:43:30.548Z,100.00
2022-10-13T01:46:00.508Z,100.00
2022-10-13T01:48:28.663Z,100.00
2022-10-13T01:50:58.426Z,100.00
2022-10-13T01:53:25.481Z,100.00
2022-10-13T01:56:01.061Z,100.00
2022-10-13T01:58:30.487Z,100.00
2022-10-13T02:01:20.529Z,100.00
2022-10-13T02:04:00.241Z,100.00
2022-10-13T02:06:44.869Z,100.00
2022-10-13T02:09:18.515Z,100.00
2022-10-13T02:11:51.902Z,100.00
2022-10-13T02:14:24.064Z,100.00
2022-10-13T02:16:50.775Z,100.00
2022-10-13T02:19:20.416Z,100.00
2022-10-13T02:21:48.336Z,100.00
2022-10-13T02:24:14.982Z,100.00
2022-10-13T02:26:41.752Z,100.00
2022-10-13T02:29:10.595Z,100.00
2022-10-13T02:31:38.232Z,100.00
2022-10-13T02:34:05.945Z,100.00
2022-10-13T02:36:33.251Z,100.00
2022-10-13T02:38:59.730Z,100.00
2022-10-13T02:41:31.276Z,100.00
2022-10-13T02:43:57.703Z,100.00
2022-10-13T02:46:26.383Z,100.00
2022-10-13T02:48:53.016Z,100.00
2022-10-13T02:51:19.463Z,100.00
2022-10-13T02:53:45.951Z,100.00
2022-10-13T02:56:12.412Z,100.00
2022-10-13T02:58:38.847Z,100.00
2022-10-13T03:01:11.325Z,100.00
2022-10-13T03:03:40.426Z,100.00
2022-10-13T03:06:12.071Z,100.00
2022-10-13T03:08:38.539Z,100.00
2022-10-13T03:11:05.063Z,100.00
2022-10-13T03:13:31.901Z,100.00
2022-10-13T03:16:00.858Z,100.00
2022-10-13T03:18:31.998Z,100.00
2022-10-13T03:21:05.206Z,100.00
2022-10-13T03:23:32.923Z,100.00
2022-10-13T03:25:59.831Z,100.00
2022-10-13T03:28:26.375Z,100.00
2022-10-13T03:31:04.469Z,100.00
2022-10-13T03:33:33.086Z,100.00
2022-10-13T03:36:04.948Z,100.00
2022-10-13T03:38:33.860Z,100.00
2022-10-13T03:41:26.529Z,100.00
2022-10-13T03:43:52.927Z,100.00
2022-10-13T03:46:19.329Z,100.00
2022-10-13T03:48:46.844Z,100.00
2022-10-13T03:51:16.155Z,100.00
2022-10-13T03:53:42.555Z,100.00
2022-10-13T03:56:14.288Z,100.00
2022-10-13T03:58:40.721Z,100.00
2022-10-13T04:01:10.492Z,100.00
2022-10-13T04:03:36.934Z,100.00
2022-10-13T04:06:05.327Z,100.00
2022-10-13T04:08:33.402Z,100.00
2022-10-13T04:11:07.592Z,100.00
2022-10-13T04:13:34.572Z,100.00
2022-10-13T04:16:06.472Z,100.00
2022-10-13T04:18:42.346Z,100.00
2022-10-13T04:21:14.963Z,100.00
2022-10-13T04:23:41.856Z,100.00
2022-10-13T04:26:18.470Z,100.00
2022-10-13T04:28:47.064Z,100.00
2022-10-13T04:31:14.413Z,100.00
2022-10-13T04:33:40.894Z,100.00
2022-10-13T04:36:12.070Z,100.00
2022-10-13T04:38:38.747Z,100.00
2022-10-13T04:41:07.075Z,100.00
2022-10-13T04:43:36.565Z,100.00
2022-10-13T04:46:08.613Z,100.00
2022-10-13T04:48:35.290Z,100.00
2022-10-13T04:51:04.133Z,100.00
2022-10-13T04:53:31.279Z,100.00
2022-10-13T04:56:01.358Z,100.00
2022-10-13T04:58:27.864Z,100.00
2022-10-13T05:00:54.233Z,100.00
2022-10-13T05:03:20.614Z,100.00
2022-10-13T05:05:49.636Z,100.00
2022-10-13T05:08:16.235Z,100.00
2022-10-13T05:11:02.533Z,100.00
2022-10-13T05:13:31.965Z,100.00
2022-10-13T05:15:58.517Z,100.00
2022-10-13T05:18:25.271Z,100.00
2022-10-13T05:20:51.716Z,100.00
2022-10-13T05:23:18.135Z,100.00
2022-10-13T05:25:44.708Z,100.00
2022-10-13T05:28:11.113Z,100.00
2022-10-13T05:30:37.517Z,100.00
2022-10-13T05:33:03.923Z,100.00
2022-10-13T05:35:30.437Z,100.00
2022-10-13T05:37:56.874Z,100.00
2022-10-13T05:40:23.450Z,100.00
2022-10-13T05:42:51.362Z,100.00
2022-10-13T05:45:19.473Z,100.00
2022-10-13T05:47:48.225Z,100.00
2022-10-13T05:50:14.649Z,100.00
2022-10-13T05:52:44.386Z,100.00
2022-10-13T05:55:15.885Z,100.00
2022-10-13T05:57:52.206Z,100.00
2022-10-13T06:00:19.352Z,100.00
2022-10-13T06:02:54.797Z,100.00
2022-10-13T06:05:24.907Z,100.00
2022-10-13T06:07:51.580Z,100.00
2022-10-13T06:10:18.827Z,100.00
2022-10-13T06:12:45.280Z,100.00
2022-10-13T06:15:12.032Z,100.00
2022-10-13T06:17:39.058Z,100.00
2022-10-13T06:20:07.446Z,100.00
2022-10-13T06:22:35.223Z,100.00
2022-10-13T06:25:02.371Z,100.00
2022-10-13T06:27:29.278Z,100.00
2022-10-13T06:29:55.663Z,100.00
2022-10-13T06:32:22.564Z,100.00
2022-10-13T06:34:49.407Z,100.00
2022-10-13T06:37:15.829Z,100.00
2022-10-13T06:39:47.346Z,100.00
2022-10-13T06:42:13.997Z,100.00
2022-10-13T06:44:40.426Z,100.00
2022-10-13T06:47:06.944Z,100.00
2022-10-13T06:49:33.444Z,100.00
2022-10-13T06:51:59.871Z,100.00
2022-10-13T06:54:26.272Z,100.00
2022-10-13T06:56:52.727Z,100.00
2022-10-13T06:59:19.165Z,100.00
2022-10-13T07:01:48.855Z,100.00
2022-10-13T07:04:15.899Z,100.00
2022-10-13T07:06:44.866Z,100.00
2022-10-13T07:09:11.379Z,100.00
2022-10-13T07:11:38.862Z,100.00
2022-10-13T07:14:05.325Z,100.00
2022-10-13T07:16:34.387Z,100.00
2022-10-13T07:19:03.214Z,100.00
2022-10-13T07:21:33.204Z,100.00
2022-10-13T07:24:01.358Z,100.00
2022-10-13T07:26:27.829Z,100.00
2022-10-13T07:28:54.323Z,100.00
2022-10-13T07:31:21.112Z,100.00
2022-10-13T07:33:49.874Z,100.00
2022-10-13T07:36:21.973Z,100.00
2022-10-13T07:38:48.341Z,100.00
2022-10-13T07:41:15.131Z,100.00
2022-10-13T07:43:41.942Z,100.00
2022-10-13T07:46:10.262Z,100.00
2022-10-13T07:48:36.831Z,100.00
2022-10-13T07:51:06.001Z,100.00
2022-10-13T07:53:35.335Z,100.00
2022-10-13T07:56:03.823Z,100.00
2022-10-13T07:58:30.463Z,100.00
2022-10-13T08:01:01.107Z,100.00
2022-10-13T08:03:28.410Z,100.00
2022-10-13T08:05:59.428Z,100.00
2022-10-13T08:08:25.892Z,100.00
2022-10-13T08:13:23.935Z,100.00
2022-10-13T08:15:50.437Z,100.00
2022-10-13T08:18:19.278Z,100.00
2022-10-13T08:20:46.230Z,100.00
2022-10-13T08:23:13.719Z,100.00
2022-10-13T08:25:42.824Z,100.00
2022-10-13T08:28:24.528Z,100.00
2022-10-13T08:30:51.888Z,100.00
2022-10-13T08:33:18.386Z,100.00
2022-10-13T08:35:44.878Z,100.00
2022-10-13T08:38:11.389Z,100.00
2022-10-13T08:40:39.122Z,100.00
2022-10-13T08:43:08.134Z,100.00
2022-10-13T08:45:41.218Z,100.00
2022-10-13T08:48:32.527Z,100.00
2022-10-13T08:51:06.107Z,100.00
2022-10-13T08:53:44.069Z,100.00
2022-10-13T08:56:16.956Z,100.00
2022-10-13T08:58:43.911Z,100.00
2022-10-13T09:01:28.205Z,100.00
2022-10-13T09:04:04.021Z,100.00
2022-10-13T09:06:37.812Z,100.00
2022-10-13T09:09:11.581Z,100.00
2022-10-13T09:11:41.135Z,100.00
2022-10-13T09:14:24.434Z,100.00
2022-10-13T09:16:52.284Z,100.00
2022-10-13T09:19:36.615Z,100.00
2022-10-13T09:22:34.333Z,100.00
2022-10-13T09:25:06.731Z,100.00
2022-10-13T09:27:42.348Z,100.00
2022-10-13T09:30:26.295Z,100.00
2022-10-13T09:33:08.925Z,100.00
2022-10-13T09:35:36.711Z,100.00
2022-10-13T09:38:13.940Z,100.00
2022-10-13T09:40:41.294Z,100.00
2022-10-13T09:43:30.317Z,100.00
2022-10-13T09:45:58.473Z,100.00
2022-10-13T09:48:36.618Z,100.00
2022-10-13T09:51:03.353Z,100.00
2022-10-13T09:53:38.034Z,100.00
2022-10-13T09:56:08.674Z,100.00
2022-10-13T09:58:42.335Z,100.00
2022-10-13T10:01:22.149Z,100.00
2022-10-13T10:03:53.222Z,100.00
2022-10-13T10:06:21.719Z,100.00
2022-10-13T10:09:06.505Z,100.00
2022-10-13T10:11:41.627Z,100.00
2022-10-13T10:14:26.639Z,100.00
2022-10-13T10:17:17.259Z,100.00
2022-10-13T10:20:09.476Z,100.00
2022-10-13T10:22:44.396Z,100.00
2022-10-13T10:25:42.811Z,100.00
2022-10-13T10:28:28.089Z,100.00
2022-10-13T10:31:35.392Z,100.00
2022-10-13T10:34:23.972Z,100.00
2022-10-13T10:37:08.503Z,100.00
2022-10-13T10:40:07.576Z,100.00
2022-10-13T10:42:59.166Z,100.00
2022-10-13T10:45:33.976Z,100.00
2022-10-13T10:48:16.298Z,100.00
2022-10-13T10:50:43.166Z,100.00
2022-10-13T10:53:20.979Z,100.00
2022-10-13T10:56:14.433Z,100.00
2022-10-13T10:58:58.510Z,100.00
2022-10-13T11:01:37.116Z,100.00
2022-10-13T11:04:32.801Z,100.00
2022-10-13T11:06:59.593Z,100.00
2022-10-13T11:09:41.577Z,100.00
2022-10-13T11:12:44.878Z,100.00
2022-10-13T11:15:25.593Z,100.00
2022-10-13T11:17:54.917Z,100.00
2022-10-13T11:20:21.282Z,100.00
2022-10-13T11:23:00.082Z,100.00
2022-10-13T11:25:39.491Z,100.00
2022-10-13T11:28:21.023Z,100.00
2022-10-13T11:30:52.631Z,100.00
2022-10-13T11:33:38.224Z,100.00
2022-10-13T11:36:29.781Z,100.00
2022-10-13T11:39:02.645Z,100.00
2022-10-13T11:41:35.007Z,100.00
2022-10-13T11:44:15.321Z,100.00
2022-10-13T11:47:12.803Z,100.00
2022-10-13T11:49:55.153Z,100.00
2022-10-13T11:52:27.706Z,100.00
2022-10-13T11:55:01.415Z,100.00
2022-10-13T11:57:27.997Z,100.00
2022-10-13T11:59:56.394Z,100.00
2022-10-13T12:02:26.469Z,99.91
2022-10-13T12:05:08.720Z,100.00
2022-10-13T12:07:41.605Z,100.00
2022-10-13T12:10:18.665Z,100.00
2022-10-13T12:12:49.547Z,100.00
2022-10-13T12:15:30.107Z,100.00
2022-10-13T12:17:56.583Z,100.00
2022-10-13T12:20:27.426Z,100.00
2022-10-13T12:22:55.017Z,100.00
2022-10-13T12:25:28.094Z,100.00
2022-10-13T12:28:00.211Z,99.10
2022-10-13T12:30:29.690Z,97.61
2022-10-13T12:32:58.396Z,96.72
2022-10-13T12:35:34.877Z,99.67
2022-10-13T12:38:05.184Z,98.78
2022-10-13T12:40:32.047Z,98.56
2022-10-13T12:43:01.413Z,99.03
2022-10-13T12:45:32.021Z,97.01
2022-10-13T12:47:58.495Z,97.37
2022-10-13T12:50:35.657Z,97.95
2022-10-13T12:53:07.909Z,96.75
2022-10-13T12:55:36.046Z,97.47
2022-10-13T12:58:03.061Z,97.37
2022-10-13T13:00:30.829Z,96.72
2022-10-13T13:03:02.340Z,98.02
2022-10-13T13:05:35.225Z,94.83
2022-10-13T13:08:04.495Z,93.58
2022-10-13T13:10:35.047Z,97.30
2022-10-13T13:13:15.198Z,95.20
2022-10-13T13:15:48.937Z,97.38
2022-10-13T13:18:37.948Z,92.60
2022-10-13T13:21:05.937Z,94.98
2022-10-13T13:23:35.814Z,94.94
2022-10-13T13:26:17.400Z,94.56
2022-10-13T13:28:49.186Z,93.98
2022-10-13T13:31:18.514Z,93.67
2022-10-13T13:33:46.044Z,91.61
2022-10-13T13:36:18.971Z,92.33
2022-10-13T13:38:45.624Z,94.26
2022-10-13T13:41:17.226Z,96.35
2022-10-13T13:43:43.713Z,95.14
2022-10-13T13:46:23.354Z,95.17
2022-10-13T13:48:52.431Z,94.59
2022-10-13T13:51:19.016Z,95.66
2022-10-13T13:53:46.053Z,95.60
2022-10-13T13:56:22.294Z,96.05
2022-10-13T13:58:48.781Z,92.17
2022-10-13T14:01:15.726Z,93.90
2022-10-13T14:03:42.390Z,93.14
2022-10-13T14:06:09.101Z,91.84
2022-10-13T14:08:43.195Z,91.04
2022-10-13T14:11:10.165Z,92.06
2022-10-13T14:13:36.772Z,92.58
2022-10-13T14:16:03.879Z,92.54
2022-10-13T14:18:31.158Z,91.75
2022-10-13T14:20:57.653Z,93.73
2022-10-13T14:23:24.071Z,90.17
2022-10-13T14:25:50.578Z,89.93
2022-10-13T14:28:18.377Z,92.01
2022-10-13T14:30:50.244Z,90.87
2022-10-13T14:33:19.435Z,93.74
2022-10-13T14:35:46.792Z,96.42
2022-10-13T14:38:13.942Z,94.34
2022-10-13T14:40:43.959Z,94.52
2022-10-13T14:43:12.472Z,94.35
2022-10-13T14:45:38.904Z,93.70
2022-10-13T14:48:05.758Z,94.26
2022-10-13T14:50:34.430Z,96.97
2022-10-13T14:53:03.433Z,96.33
2022-10-13T14:55:31.988Z,96.35
2022-10-13T14:57:58.386Z,95.52
2022-10-13T15:00:26.948Z,98.73
2022-10-13T15:02:53.370Z,95.37
2022-10-13T15:05:20.194Z,97.55
2022-10-13T15:07:46.633Z,95.72
2022-10-13T15:10:13.129Z,96.70
2022-10-13T15:12:39.638Z,98.19
2022-10-13T15:15:08.834Z,98.84
2022-10-13T15:17:36.974Z,98.00
2022-10-13T15:20:04.674Z,98.01
2022-10-13T15:22:31.384Z,98.86
2022-10-13T15:24:57.875Z,98.00
2022-10-13T15:27:24.363Z,98.43
2022-10-13T15:29:52.919Z,99.43
2022-10-13T15:32:20.452Z,99.51
2022-10-13T15:34:47.338Z,100.00
2022-10-13T15:37:13.834Z,100.00
2022-10-13T15:39:40.209Z,100.00
2022-10-13T15:42:06.718Z,100.00
2022-10-13T15:44:57.437Z,100.00
2022-10-13T15:47:24.886Z,100.00
2022-10-13T15:49:54.382Z,100.00
2022-10-13T15:52:21.008Z,100.00
2022-10-13T15:54:51.409Z,100.00
2022-10-13T15:57:22.791Z,100.00
2022-10-13T15:59:51.715Z,100.00
2022-10-13T16:02:18.569Z,100.00
2022-10-13T16:04:45.295Z,100.00
2022-10-13T16:07:11.711Z,100.00
2022-10-13T16:09:40.421Z,100.00
2022-10-13T16:12:07.014Z,100.00
2022-10-13T16:14:33.417Z,100.00
2022-10-13T16:17:00.351Z,100.00
2022-10-13T16:19:26.753Z,100.00
2022-10-13T16:21:53.172Z,100.00
2022-10-13T16:24:19.821Z,100.00
2022-10-13T16:26:48.947Z,100.00
2022-10-13T16:29:15.423Z,100.00
2022-10-13T16:31:41.874Z,100.00
2022-10-13T16:34:10.987Z,100.00
2022-10-13T16:36:37.415Z,100.00
2022-10-13T16:39:04.086Z,100.00
2022-10-13T16:41:30.548Z,100.00
2022-10-13T16:43:56.928Z,100.00
2022-10-13T16:46:23.621Z,100.00
2022-10-13T16:48:50.125Z,100.00
2022-10-13T16:51:19.395Z,100.00
2022-10-13T16:53:50.703Z,100.00
2022-10-13T16:56:22.197Z,100.00
2022-10-13T16:58:55.520Z,100.00
2022-10-13T17:01:22.374Z,100.00
2022-10-13T17:03:50.580Z,100.00
2022-10-13T17:06:22.971Z,100.00
2022-10-13T17:08:50.087Z,100.00
2022-10-13T17:11:22.348Z,100.00
2022-10-13T17:13:49.680Z,100.00
2022-10-13T17:16:17.146Z,100.00
2022-10-13T17:18:43.749Z,100.00
2022-10-13T17:21:14.270Z,100.00
2022-10-13T17:23:43.554Z,100.00
2022-10-13T17:26:15.010Z,100.00
2022-10-13T17:28:42.105Z,100.00
2022-10-13T17:31:21.762Z,100.00
2022-10-13T17:33:49.690Z,100.00
2022-10-13T17:36:24.768Z,100.00
2022-10-13T17:38:52.753Z,100.00
2022-10-13T17:41:20.137Z,100.00
2022-10-13T17:43:46.566Z,100.00
2022-10-13T17:46:39.043Z,100.00
2022-10-13T17:49:09.929Z,100.00
2022-10-13T17:51:36.478Z,100.00
2022-10-13T17:54:03.315Z,100.00
2022-10-13T17:56:32.665Z,100.00
2022-10-13T17:59:00.659Z,100.00
2022-10-13T18:01:30.074Z,100.00
2022-10-13T18:04:05.605Z,100.00
2022-10-13T18:06:39.787Z,100.00
2022-10-13T18:09:10.970Z,100.00
2022-10-13T18:11:43.344Z,100.00
2022-10-13T18:14:14.312Z,100.00
2022-10-13T18:16:42.396Z,100.00
2022-10-13T18:19:08.825Z,100.00
2022-10-13T18:21:37.939Z,100.00
2022-10-13T18:24:09.636Z,100.00
2022-10-13T18:26:36.167Z,100.00
2022-10-13T18:29:03.943Z,100.00
2022-10-13T18:31:35.204Z,100.00
2022-10-13T18:34:07.594Z,100.00
2022-10-13T18:36:39.590Z,100.00
2022-10-13T18:39:27.632Z,100.00
2022-10-13T18:42:00.398Z,100.00
2022-10-13T18:44:26.941Z,100.00
2022-10-13T18:46:56.311Z,100.00
2022-10-13T18:49:30.558Z,100.00
2022-10-13T18:51:58.582Z,100.00
2022-10-13T18:54:26.107Z,100.00
2022-10-13T18:56:52.770Z,100.00
2022-10-13T18:59:19.492Z,100.00
2022-10-13T19:01:46.165Z,100.00
2022-10-13T19:04:14.621Z,100.00
2022-10-13T19:06:41.276Z,100.00
2022-10-13T19:09:10.706Z,100.00
2022-10-13T19:11:37.528Z,100.00
2022-10-13T19:14:06.864Z,100.00
2022-10-13T19:16:37.054Z,100.00
2022-10-13T19:19:03.618Z,100.00
2022-10-13T19:21:30.150Z,100.00
2022-10-13T19:23:59.626Z,100.00
2022-10-13T19:26:31.535Z,100.00
2022-10-13T19:29:03.676Z,100.00
2022-10-13T19:31:30.713Z,100.00
2022-10-13T19:33:58.653Z,100.00
2022-10-13T19:36:40.879Z,100.00
2022-10-13T19:39:13.461Z,100.00
2022-10-13T19:41:40.044Z,100.00
2022-10-13T19:44:06.477Z,100.00
2022-10-13T19:46:37.236Z,100.00
2022-10-13T19:49:06.746Z,100.00
2022-10-13T19:51:33.908Z,100.00
2022-10-13T19:54:01.492Z,100.00
2022-10-13T19:56:33.867Z,100.00
2022-10-13T19:59:01.424Z,100.00
2022-10-13T20:01:30.621Z,100.00
2022-10-13T20:03:57.156Z,100.00
2022-10-13T20:06:23.668Z,100.00
2022-10-13T20:08:50.417Z,100.00
2022-10-13T20:11:23.757Z,100.00
2022-10-13T20:13:51.722Z,100.00
2022-10-13T20:16:23.141Z,100.00
2022-10-13T20:18:56.940Z,100.00
2022-10-13T20:21:26.840Z,100.00
2022-10-13T20:23:54.422Z,100.00
2022-10-13T20:26:21.881Z,100.00
2022-10-13T20:28:49.758Z,100.00
2022-10-13T20:31:19.155Z,100.00
2022-10-13T20:33:47.189Z,100.00
2022-10-13T20:36:16.229Z,100.00
2022-10-13T20:38:47.195Z,100.00
2022-10-13T20:41:21.171Z,100.00
2022-10-13T20:43:49.429Z,100.00
2022-10-13T20:46:17.407Z,100.00
2022-10-13T20:51:30.621Z,100.00
2022-10-13T20:53:57.634Z,100.00
2022-10-13T20:56:25.797Z,100.00
2022-10-13T20:58:53.061Z,100.00
2022-10-13T21:01:23.006Z,100.00
2022-10-13T21:03:56.004Z,100.00
2022-10-13T21:06:24.240Z,100.00
2022-10-13T21:08:56.214Z,100.00
2022-10-13T21:11:23.806Z,100.00
2022-10-13T21:13:51.640Z,100.00
2022-10-13T21:16:20.928Z,100.00
2022-10-13T21:18:49.196Z,100.00
2022-10-13T21:21:25.095Z,100.00
2022-10-13T21:23:56.984Z,100.00
2022-10-13T21:26:24.669Z,100.00
2022-10-13T21:28:51.510Z,100.00
2022-10-13T21:31:22.235Z,100.00
2022-10-13T21:33:49.810Z,100.00
2022-10-13T21:36:20.754Z,100.00
2022-10-13T21:38:50.600Z,100.00
2022-10-13T21:41:17.411Z,100.00
2022-10-13T21:43:43.808Z,100.00
2022-10-13T21:46:12.422Z,100.00
2022-10-13T21:48:39.533Z,100.00
2022-10-13T21:51:15.438Z,100.00
2022-10-13T21:53:41.983Z,100.00
2022-10-13T21:56:09.874Z,100.00
2022-10-13T21:58:36.282Z,100.00
2022-10-13T22:01:04.614Z,100.00
2022-10-13T22:03:32.082Z,100.00
2022-10-13T22:05:58.817Z,100.00
2022-10-13T22:08:37.584Z,100.00
2022-10-13T22:11:05.491Z,100.00
2022-10-13T22:13:32.239Z,100.00
2022-10-13T22:16:05.035Z,100.00
2022-10-13T22:18:31.431Z,100.00
2022-10-13T22:21:13.063Z,100.00
2022-10-13T22:23:39.588Z,100.00
2022-10-13T22:26:07.545Z,100.00
2022-10-13T22:28:37.256Z,100.00
2022-10-13T22:31:12.624Z,100.00
2022-10-13T22:33:40.635Z,100.00
2022-10-13T22:36:14.524Z,100.00
2022-10-13T22:38:41.133Z,100.00
2022-10-13T22:41:08.417Z,100.00
2022-10-13T22:43:35.147Z,100.00
2022-10-13T22:46:04.353Z,100.00
2022-10-13T22:48:34.747Z,100.00
2022-10-13T22:51:07.850Z,100.00
2022-10-13T22:53:34.408Z,100.00
2022-10-13T22:56:05.883Z,100.00
2022-10-13T22:58:32.346Z,100.00
2022-10-13T23:01:09.421Z,100.00
2022-10-13T23:03:36.629Z,100.00
2022-10-13T23:06:04.197Z,100.00
2022-10-13T23:08:31.247Z,100.00
2022-10-13T23:10:57.946Z,100.00
2022-10-13T23:13:27.730Z,100.00
2022-10-13T23:15:54.177Z,100.00
2022-10-13T23:18:20.592Z,100.00
2022-10-13T23:20:47.061Z,100.00
2022-10-13T23:23:13.608Z,100.00
2022-10-13T23:25:45.072Z,100.00
2022-10-13T23:28:13.713Z,100.00
2022-10-13T23:30:40.250Z,100.00
2022-10-13T23:33:06.821Z,100.00
2022-10-13T23:35:35.670Z,100.00
2022-10-13T23:38:02.063Z,100.00
2022-10-13T23:40:28.526Z,100.00
2022-10-13T23:42:54.930Z,100.00
2022-10-13T23:45:21.404Z,100.00
2022-10-13T23:47:48.083Z,100.00
2022-10-13T23:50:14.658Z,100.00
2022-10-13T23:52:43.575Z,100.00
2022-10-13T23:55:13.068Z,100.00
2022-10-13T23:57:39.450Z,100.00
